Terminal Aerodrome Forecast
Issued by NWS

Home | Current Version | Previous Version | Text Only | Print | Product List | Glossary Off
Versions: 1 2 3 4 5 6 7 8 9 10 11 12 13 14 15

000
FTUS43 KBIS 151100
TAFDIK
TAF
KDIK 151120Z 1512/1612 17018G24KT P6SM SCT050 SCT250
     FM151400 23014KT P6SM SCT180
     FM151800 29011KT P6SM SCT050 SCT180
     FM152300 33014KT P6SM BKN050
     FM160300 35018G24KT P6SM BKN035 OVC050=

USA.gov is the U.S. government's official web portal to all federal, state and local government web resources and services.